Terminal Aerodrome Forecast
Issued by NWS

Home | Current Version | Previous Version | Text Only | Print | Product List | Glossary On
Versions: 1 2 3 4 5 6 7 8 9 10 11 12 13 14 15 16 17
000
FTUS42 KTBW 171720
TAFRSW
TAF
KRSW 171720Z 1718/1818 18007KT P6SM FEW020
     FM172000 24007KT P6SM FEW030
     FM180200 VRB03KT P6SM FEW020
     FM180800 VRB03KT 6SM BR SCT006
     FM181500 11007KT P6SM FEW015=

USA.gov is the U.S. government's official web portal to all federal, state and local government web resources and services.